Bookmark and Share
Track history (hours):
 

Jennifer

More information available from US FCC via Universal Licensing System and Coast Guard Vessel Documentation Center.

Last reported at 2014-Apr-22 11:22 UTC. Time now 2014-Apr-24 19:33 UTC.
Position N 29°32' W 090°49'.

Length 18 m; draft 3 m.

Type: Tug. MMSI: 367474690.

NotesDate/timePositionNaut miles runAvg speedWind from/ knotsBaromVisibWave heightAir tempDewpointWater temp
2014-Apr-22 11:22N 29°32' W 090°49'6 7.0
2014-Apr-22 10:33N 29°33' W 090°55'7 6.6
2014-Apr-22 09:27N 29°37' W 091°02'5 5.1
2014-Apr-22 08:26N 29°39' W 091°07'3 4.0
2014-Apr-22 07:33N 29°41' W 091°11'3 2.9
2014-Apr-22 06:33N 29°40' W 091°14'7 5.2
2014-Apr-22 05:15N 29°39' W 091°22'8 4.8
2014-Apr-22 03:32N 29°42' W 091°30'6 0.2
2014-Apr-20 12:26N 29°46' W 091°36'6 7.1
2014-Apr-20 11:33N 29°42' W 091°31'7 7.3
2014-Apr-20 10:33N 29°39' W 091°23'7 7.5
2014-Apr-20 09:33N 29°40' W 091°14'5 5.2
2014-Apr-20 08:33N 29°41' W 091°09'5 5.3
2014-Apr-20 07:33N 29°37' W 091°04'5 5.2
2014-Apr-20 06:33N 29°36' W 090°58'7 5.8
2014-Apr-20 05:24N 29°32' W 090°52'5 6.1
2014-Apr-20 04:33N 29°32' W 090°46'  
2014-Apr-17 10:32N 29°55' W 089°58'6 2.4
2014-Apr-17 08:05N 29°50' W 089°60'17 2.7
2014-Apr-17 01:33N 29°58' W 090°18'0 0.0
2014-Apr-17 00:29N 29°58' W 090°18'0 0.0
2014-Apr-16 23:30N 29°58' W 090°18'0 0.0
2014-Apr-16 22:32N 29°58' W 090°18'41 1.2
2014-Apr-15 11:32N 29°35' W 090°58'5 4.9
2014-Apr-15 10:34N 29°37' W 091°03'0 0.0
2014-Apr-15 07:34N 29°37' W 091°03'4 4.1
2014-Apr-15 06:34N 29°39' W 091°07'5 5.0
2014-Apr-15 05:34N 29°41' W 091°12'10 5.0
2014-Apr-15 03:34N 29°39' W 091°23'5 4.6
2014-Apr-15 02:33N 29°41' W 091°28'4 0.1
2014-Apr-12 23:31N 29°43' W 091°32'7 7.5
2014-Apr-12 22:33N 29°39' W 091°25'7 7.0
2014-Apr-12 21:33N 29°39' W 091°17'6 6.1
2014-Apr-12 20:33N 29°41' W 091°10'5 4.7
2014-Apr-12 19:33N 29°38' W 091°06'6 5.7
2014-Apr-12 18:33N 29°37' W 090°59'  

Dump ship's entire track history

sailing weather and tide predictions

Jennifer — WDF6480 — position and weather